LIMW/AOT METAR and TAF weather

Enter ICAO airport designator
Station Type Date Time Source
LIMW METAR 2024/06/15 19:20 UTC NOAA

LIMW 151920Z 00000KT 9999 FEW095 16/16 Q1011


Station Type Date Time Source
LIMW Decoded METAR 2024/06/15 19:20 UTC NOAA

Station name not available
Jun 15, 2024 - 03:20 PM EDT / 2024.06.15 1920 UTC
Wind: Calm:0
Visibility: greater than 7 mile(s):0
Sky conditions: mostly clear
Temperature: 60 F (16 C)
Dew Point: 60 F (16 C)
Relative Humidity: 100%
Pressure (altimeter): 29.85 in. Hg (1011 hPa)
ob: LIMW 151920Z 00000KT 9999 FEW095 16/16 Q1011
cycle: 19

Station Type Date Time Source
LIMW TAF UTC NOAA

Error!

Example: see airport list